Time;durP1;ratioP1;P1;durP2;ratioP2;P2;SDS_P1;SDS_P2;PMS_P1;PMS_P2;Temp;Humidity;BMP_temperature;BMP_pressure;BME280_temperature;BME280_humidity;BME280_pressure;Samples;Min_cycle;Max_cycle;Signal;HPM_P1;HPM_P2
2023/02/24 00:02:52;;;;;;;11.77;3.00;;;;;;;-146.27;100.00;48371.69;5087979;28;20066;-78
2023/02/24 00:05:17;;;;;;;12.95;3.50;;;;;;;-146.27;100.00;48383.66;5092171;28;20048;-78
2023/02/24 00:07:43;;;;;;;14.63;2.70;;;;;;;-146.27;100.00;48399.59;5093302;28;20032;-79
2023/02/24 00:10:10;;;;;;;16.90;2.88;;;;;;;-146.27;100.00;48403.56;5095582;28;20094;-78
2023/02/24 00:12:35;;;;;;;11.27;2.80;;;;;;;-146.27;100.00;48441.41;5094050;28;20035;-79
2023/02/24 00:15:01;;;;;;;9.88;2.38;;;;;;;-146.27;100.00;48395.59;5095602;28;20026;-78
2023/02/24 00:17:29;;;;;;;13.55;3.05;;;;;;;-146.27;100.00;48411.53;5095630;28;20421;-78
2023/02/24 00:19:54;;;;;;;12.30;2.60;;;;;;;-146.27;100.00;48415.53;5090255;28;20096;-77
2023/02/24 00:22:20;;;;;;;18.95;3.10;;;;;;;-146.27;100.00;48387.63;5093942;28;20114;-79
2023/02/24 00:24:45;;;;;;;13.23;3.38;;;;;;;-146.27;100.00;48355.78;5094502;28;20060;-77
2023/02/24 00:27:11;;;;;;;13.93;3.25;;;;;;;-146.27;100.00;48423.50;5095559;28;20115;-78
2023/02/24 00:29:36;;;;;;;7.88;2.45;;;;;;;-146.27;100.00;48361.75;5095193;28;20403;-78
2023/02/24 00:32:05;;;;;;;8.80;2.20;;;;;;;-146.27;100.00;48375.69;5081110;28;20024;-77
2023/02/24 00:34:32;;;;;;;9.65;1.75;;;;;;;-146.27;100.00;48417.50;5075020;28;20095;-77
2023/02/24 00:36:58;;;;;;;12.20;2.10;;;;;;;-146.27;100.00;48353.78;5074964;28;20024;-79
2023/02/24 00:39:32;;;;;;;13.57;1.40;;;;;;;-146.27;100.00;48443.41;5086792;28;20059;-78
2023/02/24 00:42:03;;;;;;;13.25;2.22;;;;;;;-146.27;100.00;48407.56;5095195;28;20031;-78
2023/02/24 00:44:49;;;;;;;13.55;1.90;;;;;;;-146.27;100.00;48395.59;5094434;28;20028;-76
2023/02/24 00:47:15;;;;;;;5.57;1.27;;;;;;;-146.27;100.00;48425.47;5095077;28;20032;-77
2023/02/24 00:49:41;;;;;;;5.05;1.38;;;;;;;-146.27;95.20;48383.66;5094918;28;20102;-78
2023/02/24 00:52:12;;;;;;;15.70;2.45;;;;;;;-146.27;96.06;48423.50;5095050;28;20471;-78
2023/02/24 00:54:38;;;;;;;9.27;1.30;;;;;;;-146.27;96.30;48367.72;5095414;28;20020;-77
2023/02/24 00:57:03;;;;;;;8.93;1.42;;;;;;;-146.27;94.61;48421.50;5095316;28;20024;-77
2023/02/24 00:59:28;;;;;;;10.43;0.93;;;;;;;-146.27;94.43;48399.59;5093285;28;20050;-80
2023/02/24 01:01:54;;;;;;;5.80;1.50;;;;;;;-146.27;91.66;48443.41;5093792;28;20424;-78
2023/02/24 01:04:20;;;;;;;9.13;1.50;;;;;;;-146.27;90.15;48391.63;5094862;28;20024;-78
2023/02/24 01:06:50;;;;;;;8.95;1.00;;;;;;;-146.27;91.96;48403.56;5094840;28;20090;-79
2023/02/24 01:09:19;;;;;;;8.90;1.20;;;;;;;-146.27;93.62;48401.56;5095092;28;20569;-79
2023/02/24 01:14:33;;;;;;;7.90;1.92;;;;;;;-146.27;96.76;48419.50;5093610;28;20074;-77
2023/02/24 01:16:59;;;;;;;4.93;1.48;;;;;;;-146.27;96.57;48415.53;5093518;28;20470;-79
2023/02/24 01:19:30;;;;;;;5.65;1.45;;;;;;;-146.27;97.78;48393.63;5093427;28;20103;-77
2023/02/24 01:21:56;;;;;;;8.65;1.20;;;;;;;-146.27;99.02;48411.53;5093501;28;20028;-78
2023/02/24 01:24:23;;;;;;;9.88;1.45;;;;;;;-146.27;99.10;48387.63;5093658;28;20096;-79
2023/02/24 01:26:49;;;;;;;8.77;1.13;;;;;;;-146.27;98.74;48411.53;5093540;28;20483;-78
2023/02/24 01:29:15;;;;;;;9.20;1.95;;;;;;;-146.27;97.67;48401.56;5091248;28;20027;-78
2023/02/24 01:31:42;;;;;;;14.45;1.27;;;;;;;-146.27;97.25;48391.63;5092555;28;20439;-79
2023/02/24 01:34:11;;;;;;;1.45;0.70;;;;;;;-146.27;96.86;48383.66;5092264;28;20411;-79
2023/02/24 01:36:39;;;;;;;11.60;1.90;;;;;;;-146.27;97.29;48395.59;5090942;28;20073;-79
2023/02/24 01:39:09;;;;;;;10.02;1.52;;;;;;;-146.27;100.00;48439.41;5093481;28;20016;-79
2023/02/24 01:41:43;;;;;;;8.43;1.20;;;;;;;-146.27;100.00;48405.56;5093593;28;20039;-78
2023/02/24 01:44:12;;;;;;;;;;;;;;;-146.27;100.00;48407.56;5092636;28;20028;-79
2023/02/24 01:46:40;;;;;;;5.53;1.58;;;;;;;-146.27;99.33;48395.59;5092047;28;20482;-78
2023/02/24 01:49:09;;;;;;;5.57;1.20;;;;;;;-146.27;100.00;48367.72;5093373;28;20024;-79
2023/02/24 01:51:41;;;;;;;4.95;1.33;;;;;;;-146.27;99.39;48407.56;5092991;28;20454;-79
2023/02/24 01:54:11;;;;;;;7.10;1.40;;;;;;;-146.27;99.28;48407.56;5092191;28;20030;-79
2023/02/24 01:56:38;;;;;;;2.65;1.50;;;;;;;-146.27;99.44;48397.59;5090522;28;20111;-79
2023/02/24 01:59:04;;;;;;;12.38;1.83;;;;;;;-146.27;99.84;48409.53;5091893;28;20499;-77
2023/02/24 02:01:38;;;;;;;19.02;1.55;;;;;;;-146.27;100.00;48417.50;5090862;28;20016;-79
2023/02/24 02:04:17;;;;;;;9.60;1.60;;;;;;;-146.27;100.00;48417.50;5090544;28;20038;-78
2023/02/24 02:06:44;;;;;;;8.20;1.20;;;;;;;-146.27;100.00;48423.50;5085199;28;20051;-77
2023/02/24 02:09:11;;;;;;;6.28;0.70;;;;;;;-146.27;100.00;48419.50;5092082;28;20078;-78
2023/02/24 02:11:37;;;;;;;8.40;1.63;;;;;;;-146.27;95.23;48399.59;5088730;28;20048;-80
2023/02/24 02:14:03;;;;;;;5.32;0.90;;;;;;;-146.27;90.92;48421.50;5087322;28;20055;-78
2023/02/24 02:16:48;;;;;;;8.40;1.15;;;;;;;-146.27;89.00;48397.59;5092206;28;20486;-78
2023/02/24 02:19:24;;;;;;;5.68;0.70;;;;;;;-146.27;90.45;48429.47;5079923;28;20070;-77
2023/02/24 02:22:16;;;;;;;8.35;1.15;;;;;;;-146.27;91.63;48395.59;5092447;28;20026;-77
2023/02/24 02:24:42;;;;;;;8.50;1.65;;;;;;;-146.27;92.44;48381.66;5090717;28;20016;-77
2023/02/24 02:27:18;;;;;;;4.15;1.10;;;;;;;-146.27;94.90;48381.66;5090700;28;20020;-79
2023/02/24 02:30:12;;;;;;;8.95;1.38;;;;;;;-146.27;94.48;48407.56;5082559;28;20036;-78
2023/02/24 02:32:50;;;;;;;9.20;0.88;;;;;;;-146.27;93.86;48393.63;5088950;28;20523;-78
2023/02/24 02:35:35;;;;;;;2.75;0.80;;;;;;;-146.27;92.44;48407.56;5077552;28;20036;-79
2023/02/24 02:38:02;;;;;;;10.10;0.70;;;;;;;-146.27;92.96;48435.44;5092108;28;20066;-78
2023/02/24 02:40:36;;;;;;;9.73;1.20;;;;;;;-146.27;96.55;48391.63;5092041;28;20032;-77
2023/02/24 02:43:23;;;;;;;11.88;1.50;;;;;;;-146.27;98.60;48399.59;5072737;28;20063;-78
2023/02/24 02:46:13;;;;;;;12.63;1.88;;;;;;;-146.27;99.29;48391.63;5083644;28;20075;-77
2023/02/24 02:48:46;;;;;;;10.02;1.17;;;;;;;-146.27;99.43;48389.63;5076999;28;20024;-76
2023/02/24 02:51:28;;;;;;;9.15;0.73;;;;;;;-146.27;100.00;48379.66;5092170;28;20383;-79
2023/02/24 02:54:26;;;;;;;5.15;1.08;;;;;;;-146.27;99.91;48343.81;5092111;28;20053;-76
2023/02/24 02:57:04;;;;;;;13.65;1.33;;;;;;;-146.27;99.85;48407.56;5090099;28;20043;-77
2023/02/24 02:59:33;;;;;;;4.82;1.00;;;;;;;-146.27;98.63;48387.63;5084619;28;20024;-77
2023/02/24 03:02:13;;;;;;;11.00;1.10;;;;;;;-146.27;98.02;48403.56;5091677;28;20046;-78
2023/02/24 03:04:45;;;;;;;13.07;1.33;;;;;;;-146.27;96.92;48407.56;5089626;28;20027;-79
2023/02/24 03:07:13;;;;;;;4.93;0.95;;;;;;;-146.27;94.63;48387.63;5091172;28;20048;-78
2023/02/24 03:09:43;;;;;;;5.75;1.02;;;;;;;-146.27;94.22;48421.50;5092112;28;20029;-78
2023/02/24 03:12:16;;;;;;;13.73;1.92;;;;;;;-146.27;93.42;48379.66;5086795;28;20408;-77
2023/02/24 03:14:51;;;;;;;6.75;0.77;;;;;;;-146.27;87.89;48415.53;5073855;28;20754;-77
2023/02/24 03:17:29;;;;;;;4.97;1.33;;;;;;;-146.27;85.72;48385.66;5090624;28;20491;-78
2023/02/24 03:20:15;;;;;;;2.60;0.73;;;;;;;-146.27;84.84;48399.59;5091938;28;20028;-77
2023/02/24 03:23:04;;;;;;;11.55;1.02;;;;;;;-146.27;84.23;48367.72;5082488;28;20056;-77
2023/02/24 03:25:46;;;;;;;2.88;0.90;;;;;;;-146.27;83.99;48385.66;5090946;28;20048;-78
2023/02/24 03:28:24;;;;;;;3.72;1.20;;;;;;;-146.27;85.34;48399.59;5090282;28;20027;-78
2023/02/24 03:31:02;;;;;;;8.00;0.98;;;;;;;-146.27;86.75;48395.59;5090400;28;20031;-78
2023/02/24 03:33:34;;;;;;;6.53;1.02;;;;;;;-146.27;87.62;48369.72;5089562;28;20078;-77
2023/02/24 03:36:00;;;;;;;4.82;0.80;;;;;;;-146.27;87.51;48395.59;5091210;28;20118;-78
2023/02/24 03:38:29;;;;;;;6.57;0.88;;;;;;;-146.27;87.89;48387.63;5089188;28;20504;-76
2023/02/24 03:40:54;;;;;;;3.95;0.95;;;;;;;-146.27;87.67;48407.56;5089557;28;20032;-77
2023/02/24 03:43:26;;;;;;;20.25;1.55;;;;;;;-146.27;86.56;48377.69;5092441;28;20020;-78
2023/02/24 03:45:54;;;;;;;7.13;1.52;;;;;;;-146.27;85.75;48365.72;5084407;28;20114;-78
2023/02/24 03:48:20;;;;;;;6.88;0.90;;;;;;;-146.27;84.98;48387.63;5094807;28;20012;-78
2023/02/24 03:50:46;;;;;;;2.05;0.82;;;;;;;-146.27;85.08;48419.50;5096164;28;20020;-78
2023/02/24 03:53:40;;;;;;;4.97;1.10;;;;;;;-146.27;84.42;48363.75;5094331;28;20027;-78
2023/02/24 03:56:21;;;;;;;4.43;0.60;;;;;;;-146.27;83.72;48403.56;5095338;28;20036;-79
2023/02/24 03:59:14;;;;;;;5.47;0.90;;;;;;;-146.27;83.53;48419.50;5084276;28;20066;-78
2023/02/24 04:01:58;;;;;;;8.55;1.13;;;;;;;-146.27;84.03;48383.66;5079975;28;20484;-77
2023/02/24 04:04:36;;;;;;;5.18;0.68;;;;;;;-146.27;84.38;48383.66;5095069;28;20131;-78
2023/02/24 04:07:25;;;;;;;1.92;0.70;;;;;;;-146.27;84.35;48345.81;5094342;28;20043;-77
2023/02/24 04:09:53;;;;;;;3.72;1.02;;;;;;;-146.27;82.23;48399.59;5094881;28;20077;-77
2023/02/24 04:12:29;;;;;;;10.52;0.93;;;;;;;-146.27;81.93;48355.78;5093467;28;20035;-77
2023/02/24 04:15:08;;;;;;;3.80;0.70;;;;;;;-146.27;81.88;48429.47;5095900;28;20035;-79
2023/02/24 04:18:20;;;;;;;4.35;1.05;;;;;;;-146.27;81.49;48403.56;5092886;28;20063;-77
2023/02/24 04:20:52;;;;;;;5.05;0.68;;;;;;;-146.27;81.52;48411.53;5052804;28;20515;-78
2023/02/24 04:23:22;;;;;;;6.22;0.73;;;;;;;-146.27;81.30;48371.69;5090408;28;20515;-79
2023/02/24 04:25:51;;;;;;;5.45;0.75;;;;;;;-146.27;81.33;48383.66;5094004;28;20478;-78
2023/02/24 04:28:20;;;;;;;4.25;0.88;;;;;;;-146.27;81.45;48383.66;5091980;28;20024;-77
2023/02/24 04:30:49;;;;;;;4.68;1.17;;;;;;;-146.27;82.10;48397.59;5093438;28;20471;-78
2023/02/24 04:33:15;;;;;;;8.85;0.65;;;;;;;-146.27;81.66;48373.69;5095070;28;20049;-77
2023/02/24 04:35:44;;;;;;;5.85;0.77;;;;;;;-146.27;82.23;48381.66;5093383;28;20491;-79
2023/02/24 04:38:10;;;;;;;4.20;0.73;;;;;;;-146.27;82.40;48345.81;5094857;28;20024;-78
2023/02/24 04:40:36;;;;;;;7.70;1.20;;;;;;;-146.27;82.66;48383.66;5093427;28;20048;-77
2023/02/24 04:43:02;;;;;;;5.47;1.17;;;;;;;-146.27;83.27;48379.66;5093739;28;20032;-79
2023/02/24 04:45:29;;;;;;;1.60;0.80;;;;;;;-146.27;83.46;48379.66;5093486;28;20294;-78
2023/02/24 04:48:01;;;;;;;8.40;1.02;;;;;;;-146.27;83.90;48359.75;5091937;28;20016;-78
2023/02/24 04:50:29;;;;;;;9.48;1.10;;;;;;;-146.27;83.87;48369.72;5092801;28;20024;-78
2023/02/24 04:53:25;;;;;;;7.20;1.42;;;;;;;-146.27;83.50;48355.78;5089069;28;20024;-78
2023/02/24 04:55:51;;;;;;;2.55;0.60;;;;;;;-146.27;83.83;48381.66;5093790;28;20036;-79
2023/02/24 04:58:22;;;;;;;8.38;1.25;;;;;;;-146.27;84.37;48415.53;5093406;28;20060;-78
2023/02/24 05:00:51;;;;;;;4.20;1.30;;;;;;;-146.27;83.99;48359.75;5091248;28;20032;-79
2023/02/24 05:03:18;;;;;;;6.90;1.42;;;;;;;-146.27;83.49;48415.53;5093295;28;20035;-79
2023/02/24 05:05:56;;;;;;;3.75;1.30;;;;;;;-146.27;83.58;48375.69;5093111;28;20051;-78
2023/02/24 05:08:23;;;;;;;7.20;1.60;;;;;;;-146.27;83.64;48363.75;5094128;28;20024;-79
2023/02/24 05:10:49;;;;;;;14.00;2.17;;;;;;;-146.27;84.10;48355.78;5093414;28;20506;-75
2023/02/24 05:13:18;;;;;;;6.55;1.52;;;;;;;-146.27;84.80;48341.81;5093966;28;20024;-78
2023/02/24 05:15:44;;;;;;;10.57;2.67;;;;;;;-146.27;85.15;48355.78;5094324;28;20032;-78
2023/02/24 05:18:24;;;;;;;8.90;2.05;;;;;;;-146.27;85.26;48387.63;5094158;28;20028;-77
2023/02/24 05:23:43;;;;;;;10.20;1.70;;;;;;;-146.27;84.92;48387.63;5094313;28;20038;-78
2023/02/24 05:26:10;;;;;;;7.07;2.15;;;;;;;-146.27;84.64;48393.63;5088659;28;20032;-78
2023/02/24 05:28:39;;;;;;;9.32;1.80;;;;;;;-146.27;84.50;48367.72;5092872;28;20023;-78
2023/02/24 05:31:08;;;;;;;8.27;1.73;;;;;;;-146.27;84.50;48367.72;5089470;28;20030;-79
2023/02/24 05:33:36;;;;;;;8.95;2.15;;;;;;;-146.27;84.42;48377.69;5094338;28;20036;-78
2023/02/24 05:36:07;;;;;;;3.20;1.33;;;;;;;-146.27;84.25;48399.59;5094104;28;20024;-77
2023/02/24 05:38:36;;;;;;;11.02;1.95;;;;;;;-146.27;84.67;48379.66;5093640;28;20412;-79
2023/02/24 05:41:07;;;;;;;15.43;2.63;;;;;;;-146.27;84.37;48351.78;5093620;28;20027;-78
2023/02/24 05:43:34;;;;;;;10.57;2.17;;;;;;;-146.27;84.30;48381.66;5092919;28;20122;-77
2023/02/24 05:46:03;;;;;;;12.52;2.00;;;;;;;-146.27;84.18;48373.69;5093744;28;20032;-79
2023/02/24 05:48:34;;;;;;;8.75;2.30;;;;;;;-146.27;84.20;48367.72;5090627;28;20024;-78
2023/02/24 05:51:01;;;;;;;17.38;1.80;;;;;;;-146.27;84.21;48359.75;5087020;28;20534;-77
2023/02/24 05:53:27;;;;;;;9.13;1.55;;;;;;;-146.27;83.99;48423.50;5093174;28;20023;-79
2023/02/24 05:55:52;;;;;;;15.30;1.85;;;;;;;-146.27;83.92;48369.72;5090904;28;20036;-79
2023/02/24 05:58:18;;;;;;;10.18;1.88;;;;;;;-146.27;83.49;48367.72;5091465;28;20036;-76
2023/02/24 06:00:45;;;;;;;10.23;2.22;;;;;;;-146.27;83.24;48365.72;5080763;28;20286;-78
2023/02/24 06:03:16;;;;;;;7.68;1.48;;;;;;;-146.27;82.93;48397.59;5087726;28;20382;-79
2023/02/24 06:05:52;;;;;;;7.95;1.83;;;;;;;-146.27;83.17;48379.66;5091842;28;20487;-77
2023/02/24 06:08:17;;;;;;;12.13;2.40;;;;;;;-146.27;82.82;48347.81;5077881;28;20073;-78
2023/02/24 06:10:45;;;;;;;9.18;1.83;;;;;;;-146.27;83.06;48381.66;5104273;28;20468;-78
2023/02/24 06:13:10;;;;;;;9.85;2.47;;;;;;;-146.27;83.08;48343.81;5095341;28;20028;-78
2023/02/24 06:15:36;;;;;;;8.73;1.70;;;;;;;-146.27;83.19;48381.66;5102187;28;20038;-78
2023/02/24 06:18:01;;;;;;;9.50;2.17;;;;;;;-146.27;83.67;48365.72;5103485;28;20077;-79
2023/02/24 06:20:28;;;;;;;11.23;1.50;;;;;;;-146.27;83.66;48381.66;5096598;28;20384;-78
2023/02/24 06:22:57;;;;;;;11.48;1.33;;;;;;;-146.27;83.98;48395.59;5091385;28;20160;-79
2023/02/24 06:25:24;;;;;;;7.78;1.73;;;;;;;-146.27;83.90;48395.59;5101635;28;20651;-79
2023/02/24 06:27:53;;;;;;;4.75;1.35;;;;;;;-146.27;83.69;48387.63;5090693;28;20008;-77
2023/02/24 06:30:21;;;;;;;9.68;1.30;;;;;;;-146.27;83.74;48363.75;5091522;28;20039;-78
2023/02/24 06:32:47;;;;;;;7.45;1.67;;;;;;;-146.27;83.94;48379.66;5091899;28;20025;-75
2023/02/24 06:35:12;;;;;;;18.13;2.08;;;;;;;-146.27;84.05;48355.78;5090990;28;20438;-76
2023/02/24 06:37:38;;;;;;;7.90;1.63;;;;;;;-146.27;84.36;48361.75;5093135;28;20499;-75
2023/02/24 06:40:14;;;;;;;5.75;1.13;;;;;;;-146.27;84.28;48399.59;5090991;28;20024;-75
2023/02/24 06:42:47;;;;;;;11.75;3.80;;;;;;;-146.27;84.50;48341.81;5095673;28;20476;-75
2023/02/24 06:45:14;;;;;;;7.93;1.92;;;;;;;-146.27;84.27;48371.69;5081425;28;20035;-75
2023/02/24 06:47:41;;;;;;;12.93;2.22;;;;;;;-146.27;85.03;48363.75;5082911;28;20020;-74
2023/02/24 06:50:09;;;;;;;6.15;1.45;;;;;;;-146.27;84.83;48387.63;5088674;28;20029;-79
2023/02/24 06:52:35;;;;;;;7.20;1.42;;;;;;;-146.27;84.91;48387.63;5090540;28;20031;-78
2023/02/24 06:55:05;;;;;;;13.50;1.20;;;;;;;-146.27;84.39;48375.69;5081963;28;20020;-78
2023/02/24 06:57:34;;;;;;;3.97;1.17;;;;;;;-146.27;85.10;48403.56;5087162;28;20093;-77
2023/02/24 07:00:15;;;;;;;9.20;1.38;;;;;;;-146.27;85.51;48391.63;5087338;28;20028;-77
2023/02/24 07:02:41;;;;;;;11.60;1.40;;;;;;;-146.27;85.56;48399.59;5090117;28;20036;-76
2023/02/24 07:05:13;;;;;;;11.85;1.67;;;;;;;-146.27;86.86;48377.69;5086534;28;20032;-78
2023/02/24 07:07:44;;;;;;;14.02;1.60;;;;;;;-146.27;87.63;48357.75;5086377;28;20479;-78
2023/02/24 07:10:12;;;;;;;6.45;1.30;;;;;;;-146.27;87.24;48383.66;5086057;28;20024;-78
2023/02/24 07:12:37;;;;;;;15.88;1.98;;;;;;;-146.27;87.20;48379.66;5085736;28;20033;-78
2023/02/24 07:15:03;;;;;;;5.85;1.35;;;;;;;-146.27;86.74;48359.75;5090009;28;20024;-78
2023/02/24 07:17:29;;;;;;;12.23;1.77;;;;;;;-146.27;87.51;48403.56;5089274;28;20028;-79
2023/02/24 07:19:56;;;;;;;13.40;1.58;;;;;;;-146.27;87.73;48405.56;5089549;28;20024;-78
2023/02/24 07:22:23;;;;;;;11.98;2.05;;;;;;;-146.27;88.86;48383.66;5085803;28;20475;-77
2023/02/24 07:24:49;;;;;;;12.13;1.75;;;;;;;-146.27;89.77;48371.69;5086362;28;20032;-78
2023/02/24 07:27:20;;;;;;;4.95;1.25;;;;;;;-146.27;90.40;48383.66;5088258;28;20050;-78
2023/02/24 07:29:48;;;;;;;12.48;1.90;;;;;;;-146.27;90.93;48373.69;5088242;28;20140;-77
2023/02/24 07:32:14;;;;;;;7.28;1.52;;;;;;;-146.27;91.21;48423.50;5088511;28;20076;-78
2023/02/24 07:34:39;;;;;;;12.18;1.90;;;;;;;-146.27;91.55;48379.66;5090827;28;20020;-75
2023/02/24 07:37:08;;;;;;;6.65;1.90;;;;;;;-146.27;91.82;48385.66;5089493;28;20081;-77
2023/02/24 07:39:35;;;;;;;14.00;2.63;;;;;;;-146.27;92.23;48407.56;5077161;28;20024;-76
2023/02/24 07:42:01;;;;;;;10.27;2.28;;;;;;;-146.27;92.17;48369.72;5079095;28;20028;-73
2023/02/24 07:44:28;;;;;;;9.02;1.80;;;;;;;-146.27;92.73;48379.66;5087555;28;20118;-73
2023/02/24 07:46:55;;;;;;;21.45;2.13;;;;;;;-146.27;92.77;48355.78;5077561;28;20025;-78
2023/02/24 07:49:24;;;;;;;7.47;2.08;;;;;;;-146.27;93.76;48377.69;5088449;28;20039;-78
2023/02/24 07:51:56;;;;;;;14.95;2.22;;;;;;;-146.27;94.03;48419.50;5092306;28;20569;-77
2023/02/24 07:54:24;;;;;;;12.50;2.80;;;;;;;-146.27;94.48;48377.69;5078850;28;20479;-77
2023/02/24 07:56:55;;;;;;;9.93;2.05;;;;;;;-146.27;95.02;48365.72;5106364;28;20047;-77
2023/02/24 07:59:23;;;;;;;17.88;2.20;;;;;;;-146.27;96.22;48379.66;5090107;28;20053;-79
2023/02/24 08:01:48;;;;;;;7.40;1.67;;;;;;;-146.27;97.18;48375.69;5100496;28;20028;-80
2023/02/24 08:04:22;;;;;;;10.38;2.20;;;;;;;-146.27;97.21;48383.66;5091792;28;20027;-79
2023/02/24 08:06:54;;;;;;;13.65;2.83;;;;;;;-146.27;97.15;48363.75;5090799;28;20047;-77
2023/02/24 08:09:45;;;;;;;11.30;2.25;;;;;;;-146.27;97.68;48383.66;5087520;28;20028;-75
2023/02/24 08:12:06;;;;;;;11.18;2.30;;;;;;;-146.27;97.82;48361.75;5087470;28;20028;-75
2023/02/24 08:14:33;;;;;;;13.75;2.47;;;;;;;-146.27;98.42;48353.78;5087858;28;20125;-74
2023/02/24 08:17:01;;;;;;;8.77;2.08;;;;;;;-146.27;98.76;48407.56;5081238;28;20034;-75
2023/02/24 08:19:49;;;;;;;26.52;3.17;;;;;;;-146.27;98.72;48399.59;5088938;28;20027;-75
2023/02/24 08:22:18;;;;;;;12.82;2.00;;;;;;;-146.27;99.56;48373.69;5085906;28;20046;-75
2023/02/24 08:25:06;;;;;;;14.32;2.47;;;;;;;-146.27;100.00;48363.75;5085578;28;20103;-74
2023/02/24 08:27:37;;;;;;;13.90;2.47;;;;;;;-146.27;100.00;48363.75;5085556;28;20016;-74
2023/02/24 08:30:04;;;;;;;19.38;2.30;;;;;;;-146.27;100.00;48399.59;5088256;28;20117;-75
2023/02/24 08:32:35;;;;;;;11.13;2.03;;;;;;;-146.27;100.00;48387.63;5084080;28;20130;-75
2023/02/24 08:35:04;;;;;;;10.68;2.50;;;;;;;-146.27;100.00;48347.81;5084167;28;20043;-75
2023/02/24 08:37:33;;;;;;;9.15;1.65;;;;;;;-146.27;100.00;48371.69;5094145;28;20028;-75
2023/02/24 08:39:59;;;;;;;14.07;2.15;;;;;;;-146.27;100.00;48375.69;5085939;28;20089;-75
2023/02/24 08:42:33;;;;;;;14.70;2.35;;;;;;;-146.27;100.00;48407.56;5103672;28;20126;-74
2023/02/24 08:45:01;;;;;;;12.57;1.95;;;;;;;-146.27;100.00;48385.66;5092521;28;20111;-76
2023/02/24 08:47:29;;;;;;;15.05;2.88;;;;;;;-146.27;100.00;48383.66;5081178;28;20042;-78
2023/02/24 08:49:58;;;;;;;14.13;2.00;;;;;;;-146.27;100.00;48387.63;5070248;28;20024;-76
2023/02/24 08:52:26;;;;;;;16.25;2.22;;;;;;;-146.27;100.00;48343.81;5083621;28;20458;-79
2023/02/24 08:54:57;;;;;;;6.63;2.17;;;;;;;-146.27;100.00;48405.56;5086527;28;20032;-79
2023/02/24 08:57:24;;;;;;;12.02;2.00;;;;;;;-146.27;100.00;48411.53;5084903;28;20043;-78
2023/02/24 08:59:56;;;;;;;18.67;2.00;;;;;;;-146.27;100.00;48359.75;5064095;28;20024;-77
2023/02/24 09:02:23;;;;;;;17.33;2.15;;;;;;;-146.27;100.00;48355.78;5084699;28;20028;-78
2023/02/24 09:04:56;;;;;;;15.13;2.92;;;;;;;-146.27;100.00;48363.75;5090481;28;20028;-79
2023/02/24 09:07:27;;;;;;;5.35;1.23;;;;;;;-146.27;100.00;48397.59;5094795;28;20066;-78
2023/02/24 09:09:55;;;;;;;10.50;2.13;;;;;;;-146.27;100.00;48411.53;5092839;28;20420;-79
2023/02/24 09:12:23;;;;;;;24.27;2.22;;;;;;;-146.27;100.00;48407.56;5089661;28;20021;-78
2023/02/24 09:15:03;;;;;;;11.57;2.65;;;;;;;-146.27;100.00;48393.63;5075159;28;20051;-79
2023/02/24 09:17:39;;;;;;;12.90;1.77;;;;;;;-146.27;100.00;48369.72;5089274;28;20048;-77
2023/02/24 09:22:59;;;;;;;11.93;3.00;;;;;;;-146.27;100.00;48387.63;5087507;28;20387;-78
2023/02/24 09:25:39;;;;;;;20.65;2.65;;;;;;;-146.27;100.00;48385.66;5090598;28;20024;-77
2023/02/24 09:28:19;;;;;;;14.80;2.45;;;;;;;-146.27;100.00;48407.56;5079257;28;20046;-76
2023/02/24 09:30:51;;;;;;;19.58;2.90;;;;;;;-146.27;100.00;48387.63;5085137;28;20084;-78
2023/02/24 09:33:37;;;;;;;14.48;2.60;;;;;;;-146.27;100.00;48391.63;5090556;28;20032;-78
2023/02/24 09:36:09;;;;;;;17.15;3.10;;;;;;;-146.27;100.00;48355.78;5079693;28;20028;-78
2023/02/24 09:41:32;;;;;;;8.50;2.72;;;;;;;-146.27;100.00;48381.66;5088111;28;20034;-79
2023/02/24 09:44:06;;;;;;;15.05;3.25;;;;;;;-146.27;100.00;48369.72;5091012;28;20031;-77
2023/02/24 09:47:07;;;;;;;20.02;3.70;;;;;;;-146.27;100.00;48387.63;5088326;28;20021;-78
2023/02/24 09:49:46;;;;;;;12.50;4.47;;;;;;;-146.27;100.00;48373.69;5098994;28;20470;-78
2023/02/24 09:52:16;;;;;;;12.85;4.43;;;;;;;-146.27;100.00;48387.63;5090251;28;20061;-78
2023/02/24 09:55:11;;;;;;;15.75;5.07;;;;;;;-146.27;100.00;48369.72;5075405;28;20029;-79
2023/02/24 09:57:53;;;;;;;17.10;5.28;;;;;;;-146.27;100.00;48415.53;5090951;28;20053;-78
2023/02/24 10:00:24;;;;;;;13.25;5.03;;;;;;;-146.27;100.00;48379.66;5093154;28;20093;-79
2023/02/24 10:03:18;;;;;;;16.67;6.03;;;;;;;-146.27;100.00;48375.69;5084462;28;20047;-78
2023/02/24 10:05:49;;;;;;;19.02;6.85;;;;;;;-146.27;100.00;48365.72;5092986;28;20075;-79
2023/02/24 10:08:30;;;;;;;20.05;7.40;;;;;;;-146.27;100.00;48363.75;5087930;28;20111;-78
2023/02/24 10:11:05;;;;;;;20.50;7.15;;;;;;;-146.27;100.00;48371.69;5088677;28;20119;-78
2023/02/24 10:13:33;;;;;;;21.17;8.18;;;;;;;-146.27;100.00;48379.66;5090267;28;20027;-78
2023/02/24 10:16:04;;;;;;;22.33;8.73;;;;;;;-146.27;100.00;48399.59;5089383;28;20052;-78
2023/02/24 10:18:59;;;;;;;18.25;9.48;;;;;;;-146.27;100.00;48385.66;5092253;28;20066;-78
2023/02/24 10:21:49;;;;;;;24.67;9.45;;;;;;;-146.27;100.00;48387.63;5074714;28;20032;-78
2023/02/24 10:24:40;;;;;;;19.85;9.52;;;;;;;-146.27;100.00;48383.66;5091206;28;20020;-76
2023/02/24 10:27:16;;;;;;;25.23;10.25;;;;;;;-146.27;100.00;48387.63;5086868;28;20031;-76
2023/02/24 10:30:04;;;;;;;27.35;10.38;;;;;;;-146.27;100.00;48395.59;5087173;28;20024;-79
2023/02/24 10:32:48;;;;;;;18.95;9.38;;;;;;;-146.27;100.00;48399.59;5082437;28;20024;-78
2023/02/24 10:35:17;;;;;;;16.80;10.07;;;;;;;-146.27;100.00;48399.59;5092282;28;20030;-77
2023/02/24 10:37:43;;;;;;;21.40;9.52;;;;;;;-146.27;100.00;48383.66;5084306;28;20056;-77
2023/02/24 10:40:09;;;;;;;19.90;10.38;;;;;;;-146.27;100.00;48363.75;5086543;28;20506;-77
2023/02/24 10:42:36;;;;;;;26.63;10.98;;;;;;;-146.27;100.00;48351.78;5091210;28;20020;-78
2023/02/24 10:45:10;;;;;;;17.00;9.52;;;;;;;-146.27;100.00;48411.53;5088283;28;20055;-77
2023/02/24 10:47:43;;;;;;;19.77;9.85;;;;;;;-146.27;100.00;48367.72;5085880;28;20559;-78
2023/02/24 10:50:33;;;;;;;17.90;10.00;;;;;;;-146.27;100.00;48385.66;5088385;28;20263;-76
2023/02/24 10:58:44;;;;;;;22.42;10.73;;;;;;;-146.27;100.00;48419.50;5090704;28;20043;-77
2023/02/24 11:01:39;;;;;;;21.20;9.73;;;;;;;-146.27;100.00;48421.50;5088648;28;20075;-79
2023/02/24 11:04:21;;;;;;;23.58;10.77;;;;;;;-146.27;100.00;48373.69;5084442;28;20019;-79
2023/02/24 11:06:56;;;;;;;19.60;10.43;;;;;;;-146.27;100.00;48387.63;5088554;28;20073;-78
2023/02/24 11:17:32;;;;;;;22.38;10.80;;;;;;;-146.27;100.00;48365.72;5073536;28;20039;-79
2023/02/24 11:20:00;;;;;;;24.30;10.55;;;;;;;-146.27;100.00;48359.75;5083087;28;20024;-78
2023/02/24 11:22:31;;;;;;;23.70;10.57;;;;;;;-146.27;100.00;48379.66;5087573;28;20036;-77
2023/02/24 11:25:04;;;;;;;22.33;10.48;;;;;;;-146.27;100.00;48427.47;5090917;28;20494;-79
2023/02/24 11:27:29;;;;;;;20.20;9.27;;;;;;;-146.27;100.00;48387.63;5077770;28;20051;-78
2023/02/24 11:30:25;;;;;;;26.67;8.80;;;;;;;-146.27;100.00;48401.56;5083773;28;20105;-78
2023/02/24 11:33:12;;;;;;;15.65;6.82;;;;;;;-146.27;100.00;48403.56;5085968;28;20039;-79
2023/02/24 11:35:55;;;;;;;19.60;6.03;;;;;;;-146.27;100.00;48359.75;5089542;28;20024;-78
2023/02/24 11:38:35;;;;;;;18.27;6.60;;;;;;;-146.27;100.00;48351.78;5078903;28;20111;-78
2023/02/24 11:41:30;;;;;;;20.00;6.65;;;;;;;-146.27;100.00;48401.56;5073972;28;20486;-78
2023/02/24 11:44:03;;;;;;;28.10;7.57;;;;;;;-146.27;100.00;48381.66;5087427;28;20418;-78
2023/02/24 11:46:47;;;;;;;16.60;6.87;;;;;;;-146.27;100.00;48377.69;5087508;28;20024;-77
2023/02/24 11:49:24;;;;;;;24.17;8.13;;;;;;;-146.27;100.00;48385.66;5079003;28;20024;-78
2023/02/24 11:51:51;;;;;;;25.30;6.68;;;;;;;-146.27;100.00;48417.50;5075953;28;20034;-78
2023/02/24 11:54:17;;;;;;;30.08;8.27;;;;;;;-146.27;100.00;48391.63;5086135;28;20387;-78
2023/02/24 11:56:45;;;;;;;26.63;7.55;;;;;;;-146.27;100.00;48371.69;5074101;28;20027;-78
2023/02/24 11:59:15;;;;;;;22.38;8.82;;;;;;;-146.27;100.00;48371.69;5089194;28;20487;-77